• Join FlightAware (Why Join?)
  • Login
  • US Flag 
12:18AM EDT


 

Airport Tracker/Info


-or-


 

Live Flight TrackerFlight Track Log ✈ SWA127 ✈ 29-Apr-2013 ✈ KHOU - KHRL

Flight Track Log - Related Links

Times and Time Zones

All times are in EDT time to prevent confusion due to time zone crossing. See the SWA127 flight status page for this flight to view local times or setup timezone preferences in your user account.

Time Position Orientation Groundspeed Altitude Reporting Facility
EDT Latitude Longitude Course Direction KTS MPH feet Rate Location/Type
11:40AM 29.6581 -95.2622 130° Southeast 171 197 800  Level Houston Center
11:41AM 29.6292 -95.2225 130° Southeast 238 274 2,800 2,220 Climbing Houston Center
11:41AM 29.6150 -95.2219 178° South 234 269 3,700 2,820 Climbing Houston Center
11:42AM 29.5622 -95.2258 184° South 260 299 5,700 2,220 Climbing Houston Center
11:42AM 29.5492 -95.2314 200° South 252 290 6,000 2,760 Climbing Houston Center
11:43AM 29.4789 -95.2700 206° Southwest 278 320 9,400 3,000 Climbing Houston Center
11:44AM 29.3825 -95.3153 202° Southwest 311 358 12,200 2,460 Climbing Houston Center
11:45AM 29.2989 -95.3703 210° Southwest 343 395 14,600 2,460 Climbing Houston Center
11:46AM 29.2136 -95.4375 215° Southwest 366 421 17,300 2,400 Climbing Houston Center
11:47AM 29.1267 -95.5036 214° Southwest 374 430 19,600 1,980 Climbing Houston Center
11:48AM 29.0361 -95.5728 214° Southwest 389 448 21,500 1,920 Climbing Houston Center
11:49AM 28.9436 -95.6436 214° Southwest 398 458 23,600 1,980 Climbing Houston Center
11:50AM 28.8294 -95.7300 214° Southwest 410 472 25,600 1,620 Climbing Houston Center
11:51AM 28.7311 -95.8053 214° Southwest 424 488 27,000 1,680 Climbing Houston Center
11:53AM 28.6339 -95.8800 214° Southwest 422 486 29,100 1,980 Climbing Houston Center
11:54AM 28.5400 -95.9503 213° Southwest 404 465 31,200 1,740 Climbing Houston Center
11:55AM 28.4350 -96.0303 214° Southwest 395 455 32,700 1,200 Climbing Houston Center
11:56AM 28.3414 -96.0992 213° Southwest 398 458 33,800 600 Climbing Houston Center
11:57AM 28.2511 -96.1697 215° Southwest 395 455 34,000 60 Climbing Houston Center
11:58AM 28.1589 -96.2392 214° Southwest 396 456 34,000  Level Houston Center
11:59AM 28.0672 -96.3053 212° Southwest 393 452 34,000  Level Houston Center
12:00PM 27.9767 -96.3742 214° Southwest 391 450 34,000  Level Houston Center
12:01PM 27.8678 -96.4553 213° Southwest 390 449 34,000  Level Houston Center
12:02PM 27.7772 -96.5225 213° Southwest 390 449 34,000  Level Houston Center
12:03PM 27.6869 -96.5892 213° Southwest 388 447 34,000  Level Houston Center
12:04PM 27.5978 -96.6556 213° Southwest 386 444 34,000 -1,080 Level Houston Center
12:05PM 27.5083 -96.7217 213° Southwest 383 441 31,800 -2,160 Descending Houston Center
12:06PM 27.4189 -96.7867 213° Southwest 383 441 29,500 -2,280 Descending Houston Center
12:07PM 27.3267 -96.8561 214° Southwest 368 423 27,200 -2,100 Descending Houston Center
12:08PM 27.2453 -96.9158 213° Southwest 355 409 25,200 -2,040 Descending Houston Center
12:09PM 27.1625 -96.9767 213° Southwest 354 407 23,000 -2,340 Descending Houston Center
12:10PM 27.0572 -97.0533 213° Southwest 369 425 20,400 -2,400 Descending Houston Center
12:11PM 27.0219 -97.0806 215° Southwest 369 425 19,500 -2,040 Descending Houston Center
12:11PM 26.9750 -97.1142 213° Southwest 360 414 18,300 -1,980 Descending Houston Center
12:11PM 26.9500 -97.1331 214° Southwest 343 395 17,700 -2,040 Descending Houston Center
12:12PM 26.8900 -97.1739 211° Southwest 341 392 16,200 -2,040 Descending Houston Center
12:12PM 26.8700 -97.1911 218° Southwest 324 373 15,700 -1,860 Descending Houston Center
12:13PM 26.8153 -97.2292 212° Southwest 324 373 14,300 -1,920 Descending Houston Center
12:13PM 26.7981 -97.2433 216° Southwest 324 373 13,800 -2,040 Descending Houston Center
12:14PM 26.7308 -97.2900 212° Southwest 334 384 12,200 -1,980 Descending Houston Center
12:15PM 26.6594 -97.3536 219° Southwest 329 379 10,300 -1,680 Descending Houston Center
12:16PM 26.5975 -97.4064 217° Southwest 281 323 8,800 -1,800 Descending Houston Center
12:17PM 26.5336 -97.4622 218° Southwest 270 311 6,700 -1,980 Descending Houston Center
12:18PM 26.4772 -97.5100 217° Southwest 257 296 4,800 -1,500 Descending Houston Center
12:19PM 26.4178 -97.5597 217° Southwest 249 287 3,600 -1,140 Descending Houston Center
12:20PM 26.3669 -97.6047 218° Southwest 237 273 2,500 -900 Descending Houston Center
12:22PM 26.3144 -97.6486 217° Southwest 195 224 1,700 -840 Descending Houston Center
12:23PM 26.2733 -97.6586 192° South 141 162 800 -840 Descending Houston Center
12:24PM 26.2392 -97.6586 180° South 146 168 100 -720 Descending Houston Center
12:26PM 26.2271 -97.6551 214° Southwest  Level Estimated